sensor_id;sensor_type;location;lat;lon;timestamp;P1;durP1;ratioP1;P2;durP2;ratioP2
66129;SDS011;52930;51.464;11.764;2023-05-10T00:00:38;9.47;;;4.53;;
66129;SDS011;52930;51.464;11.764;2023-05-10T00:03:03;8.98;;;4.50;;
66129;SDS011;52930;51.464;11.764;2023-05-10T00:05:29;8.60;;;4.50;;
66129;SDS011;52930;51.464;11.764;2023-05-10T00:07:55;10.57;;;4.80;;
66129;SDS011;52930;51.464;11.764;2023-05-10T00:10:20;10.10;;;5.10;;
66129;SDS011;52930;51.464;11.764;2023-05-10T00:12:46;12.20;;;4.75;;
66129;SDS011;52930;51.464;11.764;2023-05-10T00:15:11;8.65;;;4.25;;
66129;SDS011;52930;51.464;11.764;2023-05-10T00:17:36;14.20;;;4.93;;
66129;SDS011;52930;51.464;11.764;2023-05-10T00:20:02;10.73;;;5.27;;
66129;SDS011;52930;51.464;11.764;2023-05-10T00:22:29;10.95;;;4.68;;
66129;SDS011;52930;51.464;11.764;2023-05-10T00:24:55;9.77;;;4.70;;
66129;SDS011;52930;51.464;11.764;2023-05-10T00:27:20;8.90;;;4.67;;
66129;SDS011;52930;51.464;11.764;2023-05-10T00:29:45;9.17;;;4.47;;
66129;SDS011;52930;51.464;11.764;2023-05-10T00:32:11;10.53;;;4.80;;
66129;SDS011;52930;51.464;11.764;2023-05-10T00:34:36;9.93;;;5.00;;
66129;SDS011;52930;51.464;11.764;2023-05-10T00:37:01;11.17;;;4.97;;
66129;SDS011;52930;51.464;11.764;2023-05-10T00:39:27;9.90;;;4.82;;
66129;SDS011;52930;51.464;11.764;2023-05-10T00:41:53;10.60;;;5.13;;
66129;SDS011;52930;51.464;11.764;2023-05-10T00:44:19;9.33;;;4.80;;
66129;SDS011;52930;51.464;11.764;2023-05-10T00:46:44;9.63;;;4.63;;
66129;SDS011;52930;51.464;11.764;2023-05-10T00:49:10;11.73;;;5.03;;
66129;SDS011;52930;51.464;11.764;2023-05-10T00:51:36;9.80;;;4.87;;
66129;SDS011;52930;51.464;11.764;2023-05-10T00:54:02;11.18;;;5.25;;
66129;SDS011;52930;51.464;11.764;2023-05-10T00:56:27;9.80;;;5.00;;
66129;SDS011;52930;51.464;11.764;2023-05-10T00:58:54;9.48;;;4.68;;
66129;SDS011;52930;51.464;11.764;2023-05-10T01:01:19;9.53;;;4.67;;
66129;SDS011;52930;51.464;11.764;2023-05-10T01:03:45;11.23;;;5.10;;
66129;SDS011;52930;51.464;11.764;2023-05-10T01:06:10;10.37;;;4.87;;
66129;SDS011;52930;51.464;11.764;2023-05-10T01:08:36;10.50;;;5.00;;
66129;SDS011;52930;51.464;11.764;2023-05-10T01:11:01;11.23;;;4.90;;
66129;SDS011;52930;51.464;11.764;2023-05-10T01:15:57;11.05;;;4.85;;
66129;SDS011;52930;51.464;11.764;2023-05-10T01:18:23;9.43;;;4.93;;
66129;SDS011;52930;51.464;11.764;2023-05-10T01:20:48;9.17;;;4.53;;
66129;SDS011;52930;51.464;11.764;2023-05-10T01:26:19;9.27;;;5.30;;
66129;SDS011;52930;51.464;11.764;2023-05-10T01:28:58;8.80;;;4.50;;
66129;SDS011;52930;51.464;11.764;2023-05-10T01:37:27;14.27;;;4.70;;
66129;SDS011;52930;51.464;11.764;2023-05-10T01:40:32;11.32;;;4.80;;
66129;SDS011;52930;51.464;11.764;2023-05-10T01:42:55;9.05;;;4.82;;
66129;SDS011;52930;51.464;11.764;2023-05-10T01:45:32;10.23;;;4.72;;
66129;SDS011;52930;51.464;11.764;2023-05-10T01:48:08;13.52;;;5.00;;
66129;SDS011;52930;51.464;11.764;2023-05-10T01:50:35;9.27;;;4.97;;
66129;SDS011;52930;51.464;11.764;2023-05-10T01:53:02;10.80;;;5.05;;
66129;SDS011;52930;51.464;11.764;2023-05-10T01:55:32;10.60;;;5.63;;
66129;SDS011;52930;51.464;11.764;2023-05-10T01:58:14;10.25;;;5.03;;
66129;SDS011;52930;51.464;11.764;2023-05-10T02:00:42;9.55;;;4.75;;
66129;SDS011;52930;51.464;11.764;2023-05-10T02:03:10;10.65;;;5.22;;
66129;SDS011;52930;51.464;11.764;2023-05-10T02:05:36;10.10;;;4.75;;
66129;SDS011;52930;51.464;11.764;2023-05-10T02:08:03;8.85;;;4.90;;
66129;SDS011;52930;51.464;11.764;2023-05-10T02:10:30;13.35;;;4.82;;
66129;SDS011;52930;51.464;11.764;2023-05-10T02:12:58;9.52;;;4.40;;
66129;SDS011;52930;51.464;11.764;2023-05-10T02:15:23;10.63;;;4.88;;
66129;SDS011;52930;51.464;11.764;2023-05-10T02:17:50;10.55;;;4.85;;
66129;SDS011;52930;51.464;11.764;2023-05-10T02:20:16;10.27;;;5.03;;
66129;SDS011;52930;51.464;11.764;2023-05-10T02:22:42;11.63;;;5.20;;
66129;SDS011;52930;51.464;11.764;2023-05-10T02:25:08;11.45;;;5.28;;
66129;SDS011;52930;51.464;11.764;2023-05-10T02:27:34;10.07;;;4.97;;
66129;SDS011;52930;51.464;11.764;2023-05-10T02:30:00;13.13;;;5.28;;
66129;SDS011;52930;51.464;11.764;2023-05-10T02:32:26;11.07;;;4.87;;
66129;SDS011;52930;51.464;11.764;2023-05-10T02:34:52;10.50;;;4.82;;
66129;SDS011;52930;51.464;11.764;2023-05-10T02:37:20;10.40;;;5.20;;
66129;SDS011;52930;51.464;11.764;2023-05-10T02:39:47;10.82;;;4.68;;
66129;SDS011;52930;51.464;11.764;2023-05-10T02:42:14;12.83;;;4.67;;
66129;SDS011;52930;51.464;11.764;2023-05-10T02:44:41;10.18;;;5.00;;
66129;SDS011;52930;51.464;11.764;2023-05-10T02:47:07;10.75;;;5.20;;
66129;SDS011;52930;51.464;11.764;2023-05-10T02:49:32;9.43;;;4.87;;
66129;SDS011;52930;51.464;11.764;2023-05-10T02:51:59;9.57;;;4.82;;
66129;SDS011;52930;51.464;11.764;2023-05-10T02:54:29;13.65;;;5.55;;
66129;SDS011;52930;51.464;11.764;2023-05-10T02:56:56;10.85;;;5.03;;
66129;SDS011;52930;51.464;11.764;2023-05-10T02:59:24;10.27;;;5.00;;
66129;SDS011;52930;51.464;11.764;2023-05-10T03:01:49;10.63;;;4.97;;
66129;SDS011;52930;51.464;11.764;2023-05-10T03:04:15;13.23;;;4.83;;
66129;SDS011;52930;51.464;11.764;2023-05-10T03:06:41;10.27;;;4.90;;
66129;SDS011;52930;51.464;11.764;2023-05-10T03:09:06;17.27;;;5.55;;
66129;SDS011;52930;51.464;11.764;2023-05-10T03:16:52;10.80;;;4.80;;
66129;SDS011;52930;51.464;11.764;2023-05-10T03:19:26;11.00;;;5.53;;
66129;SDS011;52930;51.464;11.764;2023-05-10T03:21:53;10.05;;;5.32;;
66129;SDS011;52930;51.464;11.764;2023-05-10T03:24:20;10.98;;;5.47;;
66129;SDS011;52930;51.464;11.764;2023-05-10T03:26:47;10.98;;;5.20;;
66129;SDS011;52930;51.464;11.764;2023-05-10T03:29:13;11.00;;;5.00;;
66129;SDS011;52930;51.464;11.764;2023-05-10T03:31:40;8.73;;;4.43;;
66129;SDS011;52930;51.464;11.764;2023-05-10T03:34:06;10.32;;;4.85;;
66129;SDS011;52930;51.464;11.764;2023-05-10T03:36:32;11.40;;;5.83;;
66129;SDS011;52930;51.464;11.764;2023-05-10T03:38:57;12.18;;;5.20;;
66129;SDS011;52930;51.464;11.764;2023-05-10T03:41:22;10.77;;;5.20;;
66129;SDS011;52930;51.464;11.764;2023-05-10T03:43:48;11.53;;;4.73;;
66129;SDS011;52930;51.464;11.764;2023-05-10T03:46:13;10.67;;;5.33;;
66129;SDS011;52930;51.464;11.764;2023-05-10T03:48:38;10.87;;;5.03;;
66129;SDS011;52930;51.464;11.764;2023-05-10T03:51:03;10.60;;;4.90;;
66129;SDS011;52930;51.464;11.764;2023-05-10T03:55:54;14.90;;;4.90;;
66129;SDS011;52930;51.464;11.764;2023-05-10T03:58:19;10.40;;;5.07;;
66129;SDS011;52930;51.464;11.764;2023-05-10T04:00:45;10.32;;;5.00;;
66129;SDS011;52930;51.464;11.764;2023-05-10T04:03:11;9.33;;;5.10;;
66129;SDS011;52930;51.464;11.764;2023-05-10T04:05:37;10.30;;;4.65;;
66129;SDS011;52930;51.464;11.764;2023-05-10T04:08:02;11.80;;;5.30;;
66129;SDS011;52930;51.464;11.764;2023-05-10T04:10:28;9.00;;;4.50;;
66129;SDS011;52930;51.464;11.764;2023-05-10T04:12:53;8.32;;;4.32;;
66129;SDS011;52930;51.464;11.764;2023-05-10T04:15:19;9.10;;;4.50;;
66129;SDS011;52930;51.464;11.764;2023-05-10T04:17:44;10.80;;;4.23;;
66129;SDS011;52930;51.464;11.764;2023-05-10T04:20:10;9.60;;;4.50;;
66129;SDS011;52930;51.464;11.764;2023-05-10T04:22:36;14.60;;;4.55;;
66129;SDS011;52930;51.464;11.764;2023-05-10T04:25:01;8.57;;;3.90;;
66129;SDS011;52930;51.464;11.764;2023-05-10T04:27:26;10.43;;;3.77;;
66129;SDS011;52930;51.464;11.764;2023-05-10T04:29:52;10.57;;;4.33;;
66129;SDS011;52930;51.464;11.764;2023-05-10T04:32:17;8.27;;;4.10;;
66129;SDS011;52930;51.464;11.764;2023-05-10T04:34:43;8.93;;;4.32;;
66129;SDS011;52930;51.464;11.764;2023-05-10T04:37:08;11.67;;;5.27;;
66129;SDS011;52930;51.464;11.764;2023-05-10T04:39:34;8.83;;;3.97;;
66129;SDS011;52930;51.464;11.764;2023-05-10T04:42:00;10.82;;;4.68;;
66129;SDS011;52930;51.464;11.764;2023-05-10T04:44:27;10.35;;;4.60;;
66129;SDS011;52930;51.464;11.764;2023-05-10T04:46:53;8.70;;;4.10;;
66129;SDS011;52930;51.464;11.764;2023-05-10T04:49:18;8.90;;;4.18;;
66129;SDS011;52930;51.464;11.764;2023-05-10T04:51:44;8.13;;;4.25;;
66129;SDS011;52930;51.464;11.764;2023-05-10T04:54:09;7.40;;;4.07;;
66129;SDS011;52930;51.464;11.764;2023-05-10T04:56:35;8.50;;;3.87;;
66129;SDS011;52930;51.464;11.764;2023-05-10T04:59:00;10.52;;;4.50;;
66129;SDS011;52930;51.464;11.764;2023-05-10T05:01:25;10.38;;;4.40;;
66129;SDS011;52930;51.464;11.764;2023-05-10T05:03:51;8.97;;;4.33;;
66129;SDS011;52930;51.464;11.764;2023-05-10T05:06:17;10.18;;;4.10;;
66129;SDS011;52930;51.464;11.764;2023-05-10T05:08:43;12.93;;;4.10;;
66129;SDS011;52930;51.464;11.764;2023-05-10T05:11:08;11.83;;;4.07;;
66129;SDS011;52930;51.464;11.764;2023-05-10T05:13:33;18.30;;;4.40;;
66129;SDS011;52930;51.464;11.764;2023-05-10T05:16:00;15.47;;;4.73;;
66129;SDS011;52930;51.464;11.764;2023-05-10T05:18:26;9.93;;;4.53;;
66129;SDS011;52930;51.464;11.764;2023-05-10T05:20:51;10.20;;;4.23;;
66129;SDS011;52930;51.464;11.764;2023-05-10T05:23:16;9.03;;;3.97;;
66129;SDS011;52930;51.464;11.764;2023-05-10T05:25:43;9.38;;;3.72;;
66129;SDS011;52930;51.464;11.764;2023-05-10T05:28:08;7.77;;;3.80;;
66129;SDS011;52930;51.464;11.764;2023-05-10T05:30:33;10.90;;;4.20;;
66129;SDS011;52930;51.464;11.764;2023-05-10T05:32:59;9.13;;;4.10;;
66129;SDS011;52930;51.464;11.764;2023-05-10T05:35:24;8.95;;;3.65;;
66129;SDS011;52930;51.464;11.764;2023-05-10T05:37:49;12.50;;;4.72;;
66129;SDS011;52930;51.464;11.764;2023-05-10T05:40:15;11.70;;;4.07;;
66129;SDS011;52930;51.464;11.764;2023-05-10T05:42:40;9.30;;;4.87;;
66129;SDS011;52930;51.464;11.764;2023-05-10T05:45:06;9.18;;;3.90;;
66129;SDS011;52930;51.464;11.764;2023-05-10T05:47:33;9.48;;;4.63;;
66129;SDS011;52930;51.464;11.764;2023-05-10T05:49:59;12.33;;;4.53;;
66129;SDS011;52930;51.464;11.764;2023-05-10T05:52:24;13.95;;;4.30;;
66129;SDS011;52930;51.464;11.764;2023-05-10T05:54:50;7.80;;;4.10;;
66129;SDS011;52930;51.464;11.764;2023-05-10T05:57:15;8.70;;;4.50;;
66129;SDS011;52930;51.464;11.764;2023-05-10T05:59:40;11.93;;;4.90;;
66129;SDS011;52930;51.464;11.764;2023-05-10T06:02:09;11.75;;;4.82;;
66129;SDS011;52930;51.464;11.764;2023-05-10T06:04:35;11.52;;;4.57;;
66129;SDS011;52930;51.464;11.764;2023-05-10T06:07:00;10.90;;;4.53;;
66129;SDS011;52930;51.464;11.764;2023-05-10T06:09:25;11.17;;;4.10;;
66129;SDS011;52930;51.464;11.764;2023-05-10T06:11:51;11.07;;;4.65;;
66129;SDS011;52930;51.464;11.764;2023-05-10T06:14:16;12.50;;;5.30;;
66129;SDS011;52930;51.464;11.764;2023-05-10T06:16:42;15.63;;;4.93;;
66129;SDS011;52930;51.464;11.764;2023-05-10T06:19:07;14.13;;;5.27;;
66129;SDS011;52930;51.464;11.764;2023-05-10T06:21:32;11.27;;;4.90;;
66129;SDS011;52930;51.464;11.764;2023-05-10T06:23:58;16.83;;;5.33;;
66129;SDS011;52930;51.464;11.764;2023-05-10T06:26:23;10.50;;;4.70;;
66129;SDS011;52930;51.464;11.764;2023-05-10T06:28:48;10.40;;;4.60;;
66129;SDS011;52930;51.464;11.764;2023-05-10T06:31:14;11.15;;;4.95;;
66129;SDS011;52930;51.464;11.764;2023-05-10T06:33:39;10.60;;;5.07;;
66129;SDS011;52930;51.464;11.764;2023-05-10T06:36:05;9.35;;;4.93;;
66129;SDS011;52930;51.464;11.764;2023-05-10T06:38:30;10.75;;;5.13;;
66129;SDS011;52930;51.464;11.764;2023-05-10T06:40:56;10.87;;;5.20;;
66129;SDS011;52930;51.464;11.764;2023-05-10T06:43:22;11.57;;;5.70;;
66129;SDS011;52930;51.464;11.764;2023-05-10T06:45:47;11.90;;;5.03;;
66129;SDS011;52930;51.464;11.764;2023-05-10T06:48:13;10.82;;;5.00;;
66129;SDS011;52930;51.464;11.764;2023-05-10T06:50:38;11.37;;;5.20;;
66129;SDS011;52930;51.464;11.764;2023-05-10T06:53:03;17.47;;;6.30;;
66129;SDS011;52930;51.464;11.764;2023-05-10T06:55:29;13.57;;;5.80;;
66129;SDS011;52930;51.464;11.764;2023-05-10T06:57:54;12.55;;;5.40;;
66129;SDS011;52930;51.464;11.764;2023-05-10T07:00:20;14.07;;;6.50;;
66129;SDS011;52930;51.464;11.764;2023-05-10T07:02:45;11.80;;;5.23;;
66129;SDS011;52930;51.464;11.764;2023-05-10T07:05:11;13.05;;;6.40;;
66129;SDS011;52930;51.464;11.764;2023-05-10T07:07:37;14.60;;;6.27;;
66129;SDS011;52930;51.464;11.764;2023-05-10T07:10:02;12.23;;;5.97;;
66129;SDS011;52930;51.464;11.764;2023-05-10T07:12:28;12.13;;;5.55;;
66129;SDS011;52930;51.464;11.764;2023-05-10T07:14:53;12.93;;;5.87;;
66129;SDS011;52930;51.464;11.764;2023-05-10T07:17:18;10.90;;;5.43;;
66129;SDS011;52930;51.464;11.764;2023-05-10T07:19:44;12.63;;;5.93;;
66129;SDS011;52930;51.464;11.764;2023-05-10T07:22:09;12.27;;;6.30;;
66129;SDS011;52930;51.464;11.764;2023-05-10T07:24:35;11.52;;;5.25;;
66129;SDS011;52930;51.464;11.764;2023-05-10T07:27:00;9.65;;;4.78;;
66129;SDS011;52930;51.464;11.764;2023-05-10T07:29:26;10.00;;;4.87;;
66129;SDS011;52930;51.464;11.764;2023-05-10T07:31:51;12.07;;;4.50;;
66129;SDS011;52930;51.464;11.764;2023-05-10T07:34:16;7.15;;;3.78;;
66129;SDS011;52930;51.464;11.764;2023-05-10T07:36:42;7.93;;;4.00;;
66129;SDS011;52930;51.464;11.764;2023-05-10T07:39:07;8.10;;;3.87;;
66129;SDS011;52930;51.464;11.764;2023-05-10T07:41:32;11.03;;;4.30;;
66129;SDS011;52930;51.464;11.764;2023-05-10T07:43:58;8.53;;;4.00;;
66129;SDS011;52930;51.464;11.764;2023-05-10T07:46:23;8.13;;;4.00;;
66129;SDS011;52930;51.464;11.764;2023-05-10T07:48:49;7.17;;;3.87;;
66129;SDS011;52930;51.464;11.764;2023-05-10T07:51:14;9.90;;;4.30;;
66129;SDS011;52930;51.464;11.764;2023-05-10T07:53:40;8.20;;;3.88;;
66129;SDS011;52930;51.464;11.764;2023-05-10T07:56:22;10.73;;;4.23;;
66129;SDS011;52930;51.464;11.764;2023-05-10T07:58:57;10.43;;;4.22;;
66129;SDS011;52930;51.464;11.764;2023-05-10T08:01:23;7.88;;;3.63;;
66129;SDS011;52930;51.464;11.764;2023-05-10T08:03:49;6.73;;;3.70;;
66129;SDS011;52930;51.464;11.764;2023-05-10T08:06:16;8.93;;;4.10;;
66129;SDS011;52930;51.464;11.764;2023-05-10T08:08:42;8.65;;;3.60;;
66129;SDS011;52930;51.464;11.764;2023-05-10T08:11:07;7.10;;;3.60;;
66129;SDS011;52930;51.464;11.764;2023-05-10T08:13:33;9.40;;;3.70;;
66129;SDS011;52930;51.464;11.764;2023-05-10T08:15:58;7.50;;;4.00;;
66129;SDS011;52930;51.464;11.764;2023-05-10T08:18:24;8.47;;;4.20;;
66129;SDS011;52930;51.464;11.764;2023-05-10T08:20:49;10.30;;;4.20;;
66129;SDS011;52930;51.464;11.764;2023-05-10T08:23:15;12.77;;;4.20;;
66129;SDS011;52930;51.464;11.764;2023-05-10T08:25:40;7.80;;;3.87;;
66129;SDS011;52930;51.464;11.764;2023-05-10T08:28:06;7.20;;;3.35;;
66129;SDS011;52930;51.464;11.764;2023-05-10T08:30:31;9.53;;;4.40;;
66129;SDS011;52930;51.464;11.764;2023-05-10T08:32:56;10.00;;;4.43;;
66129;SDS011;52930;51.464;11.764;2023-05-10T08:35:22;9.73;;;3.93;;
66129;SDS011;52930;51.464;11.764;2023-05-10T08:37:47;8.10;;;3.90;;
66129;SDS011;52930;51.464;11.764;2023-05-10T08:40:12;11.30;;;4.27;;
66129;SDS011;52930;51.464;11.764;2023-05-10T08:42:39;9.48;;;4.20;;
66129;SDS011;52930;51.464;11.764;2023-05-10T08:45:06;8.82;;;4.10;;
66129;SDS011;52930;51.464;11.764;2023-05-10T08:47:33;6.85;;;3.60;;
66129;SDS011;52930;51.464;11.764;2023-05-10T08:50:00;7.47;;;3.83;;
66129;SDS011;52930;51.464;11.764;2023-05-10T08:52:27;7.85;;;3.90;;
66129;SDS011;52930;51.464;11.764;2023-05-10T08:54:53;7.55;;;3.50;;
66129;SDS011;52930;51.464;11.764;2023-05-10T08:57:18;6.55;;;3.35;;
66129;SDS011;52930;51.464;11.764;2023-05-10T08:59:44;8.20;;;3.67;;
66129;SDS011;52930;51.464;11.764;2023-05-10T09:02:09;7.73;;;3.50;;
66129;SDS011;52930;51.464;11.764;2023-05-10T09:04:35;7.90;;;3.30;;
66129;SDS011;52930;51.464;11.764;2023-05-10T09:07:00;6.73;;;3.43;;
66129;SDS011;52930;51.464;11.764;2023-05-10T09:09:26;8.13;;;3.43;;
66129;SDS011;52930;51.464;11.764;2023-05-10T09:11:52;6.32;;;2.88;;
66129;SDS011;52930;51.464;11.764;2023-05-10T09:14:18;7.55;;;3.85;;
66129;SDS011;52930;51.464;11.764;2023-05-10T09:16:45;7.97;;;3.20;;
66129;SDS011;52930;51.464;11.764;2023-05-10T09:19:11;6.25;;;3.60;;
66129;SDS011;52930;51.464;11.764;2023-05-10T09:21:36;5.47;;;3.08;;
66129;SDS011;52930;51.464;11.764;2023-05-10T09:24:05;4.82;;;2.40;;
66129;SDS011;52930;51.464;11.764;2023-05-10T09:26:31;4.60;;;2.17;;
66129;SDS011;52930;51.464;11.764;2023-05-10T09:28:59;5.05;;;2.30;;
66129;SDS011;52930;51.464;11.764;2023-05-10T09:31:28;7.93;;;1.93;;
66129;SDS011;52930;51.464;11.764;2023-05-10T09:34:08;5.45;;;1.60;;
66129;SDS011;52930;51.464;11.764;2023-05-10T09:36:35;4.65;;;1.63;;
66129;SDS011;52930;51.464;11.764;2023-05-10T09:39:01;7.23;;;1.57;;
66129;SDS011;52930;51.464;11.764;2023-05-10T09:41:27;4.40;;;1.70;;
66129;SDS011;52930;51.464;11.764;2023-05-10T09:43:55;4.60;;;1.40;;
66129;SDS011;52930;51.464;11.764;2023-05-10T09:46:21;5.37;;;1.47;;
66129;SDS011;52930;51.464;11.764;2023-05-10T09:48:48;3.10;;;1.10;;
66129;SDS011;52930;51.464;11.764;2023-05-10T09:51:22;3.13;;;1.13;;
66129;SDS011;52930;51.464;11.764;2023-05-10T09:53:49;3.70;;;1.38;;
66129;SDS011;52930;51.464;11.764;2023-05-10T09:56:34;7.50;;;1.35;;
66129;SDS011;52930;51.464;11.764;2023-05-10T09:59:05;4.63;;;1.30;;
66129;SDS011;52930;51.464;11.764;2023-05-10T10:01:31;3.72;;;1.58;;
66129;SDS011;52930;51.464;11.764;2023-05-10T10:03:56;4.47;;;1.50;;
66129;SDS011;52930;51.464;11.764;2023-05-10T10:06:25;4.00;;;1.45;;
66129;SDS011;52930;51.464;11.764;2023-05-10T10:08:51;4.40;;;1.55;;
66129;SDS011;52930;51.464;11.764;2023-05-10T10:11:16;7.00;;;1.57;;
66129;SDS011;52930;51.464;11.764;2023-05-10T10:13:42;4.13;;;1.60;;
66129;SDS011;52930;51.464;11.764;2023-05-10T10:16:08;5.07;;;1.60;;
66129;SDS011;52930;51.464;11.764;2023-05-10T10:18:33;4.20;;;1.40;;
66129;SDS011;52930;51.464;11.764;2023-05-10T10:20:58;3.90;;;1.70;;
66129;SDS011;52930;51.464;11.764;2023-05-10T10:23:24;4.20;;;1.90;;
66129;SDS011;52930;51.464;11.764;2023-05-10T10:25:50;5.90;;;1.23;;
66129;SDS011;52930;51.464;11.764;2023-05-10T10:28:23;4.20;;;2.00;;
66129;SDS011;52930;51.464;11.764;2023-05-10T10:30:52;5.00;;;1.70;;
66129;SDS011;52930;51.464;11.764;2023-05-10T10:36:07;4.95;;;1.58;;
66129;SDS011;52930;51.464;11.764;2023-05-10T10:41:29;3.67;;;1.35;;
66129;SDS011;52930;51.464;11.764;2023-05-10T10:49:50;4.82;;;1.70;;
66129;SDS011;52930;51.464;11.764;2023-05-10T10:52:33;3.95;;;1.52;;
66129;SDS011;52930;51.464;11.764;2023-05-10T10:55:00;3.50;;;1.35;;
66129;SDS011;52930;51.464;11.764;2023-05-10T10:57:26;3.83;;;1.50;;
66129;SDS011;52930;51.464;11.764;2023-05-10T11:02:51;3.55;;;1.50;;
66129;SDS011;52930;51.464;11.764;2023-05-10T11:05:41;3.67;;;1.40;;
66129;SDS011;52930;51.464;11.764;2023-05-10T11:08:26;4.07;;;1.50;;
66129;SDS011;52930;51.464;11.764;2023-05-10T11:13:28;3.92;;;1.50;;
66129;SDS011;52930;51.464;11.764;2023-05-10T11:16:10;4.25;;;1.60;;
66129;SDS011;52930;51.464;11.764;2023-05-10T11:18:36;5.38;;;1.80;;
66129;SDS011;52930;51.464;11.764;2023-05-10T11:21:02;4.10;;;1.53;;
66129;SDS011;52930;51.464;11.764;2023-05-10T11:26:08;3.70;;;1.48;;
66129;SDS011;52930;51.464;11.764;2023-05-10T11:28:34;3.15;;;1.08;;
66129;SDS011;52930;51.464;11.764;2023-05-10T11:31:05;3.20;;;1.30;;
66129;SDS011;52930;51.464;11.764;2023-05-10T11:33:31;4.13;;;1.60;;
66129;SDS011;52930;51.464;11.764;2023-05-10T11:36:10;3.33;;;1.00;;
66129;SDS011;52930;51.464;11.764;2023-05-10T11:38:39;3.63;;;1.27;;
66129;SDS011;52930;51.464;11.764;2023-05-10T11:41:05;3.23;;;1.20;;
66129;SDS011;52930;51.464;11.764;2023-05-10T11:43:30;3.37;;;1.20;;
66129;SDS011;52930;51.464;11.764;2023-05-10T11:45:56;4.30;;;1.20;;
66129;SDS011;52930;51.464;11.764;2023-05-10T11:48:21;3.20;;;1.10;;
66129;SDS011;52930;51.464;11.764;2023-05-10T11:50:48;3.40;;;1.13;;
66129;SDS011;52930;51.464;11.764;2023-05-10T11:53:14;3.40;;;1.30;;
66129;SDS011;52930;51.464;11.764;2023-05-10T11:55:39;3.63;;;1.50;;
66129;SDS011;52930;51.464;11.764;2023-05-10T11:58:05;3.20;;;1.17;;
66129;SDS011;52930;51.464;11.764;2023-05-10T12:00:30;5.37;;;1.40;;
66129;SDS011;52930;51.464;11.764;2023-05-10T12:02:56;3.60;;;1.30;;
66129;SDS011;52930;51.464;11.764;2023-05-10T12:05:21;3.87;;;1.50;;
66129;SDS011;52930;51.464;11.764;2023-05-10T12:07:47;3.70;;;1.30;;
66129;SDS011;52930;51.464;11.764;2023-05-10T12:10:12;3.70;;;1.40;;
66129;SDS011;52930;51.464;11.764;2023-05-10T12:12:45;3.33;;;1.40;;
66129;SDS011;52930;51.464;11.764;2023-05-10T12:15:19;3.37;;;1.30;;
66129;SDS011;52930;51.464;11.764;2023-05-10T12:17:49;3.90;;;1.25;;
66129;SDS011;52930;51.464;11.764;2023-05-10T12:20:18;3.70;;;1.38;;
66129;SDS011;52930;51.464;11.764;2023-05-10T12:22:54;4.40;;;1.33;;
66129;SDS011;52930;51.464;11.764;2023-05-10T12:25:21;3.83;;;1.45;;
66129;SDS011;52930;51.464;11.764;2023-05-10T12:27:51;3.30;;;1.23;;
66129;SDS011;52930;51.464;11.764;2023-05-10T12:30:24;3.47;;;1.52;;
66129;SDS011;52930;51.464;11.764;2023-05-10T12:32:51;3.60;;;1.45;;
66129;SDS011;52930;51.464;11.764;2023-05-10T12:35:16;5.63;;;1.60;;
66129;SDS011;52930;51.464;11.764;2023-05-10T12:37:42;4.27;;;1.40;;
66129;SDS011;52930;51.464;11.764;2023-05-10T12:40:08;3.90;;;1.73;;
66129;SDS011;52930;51.464;11.764;2023-05-10T12:42:35;5.10;;;1.40;;
66129;SDS011;52930;51.464;11.764;2023-05-10T12:45:01;3.80;;;1.50;;
66129;SDS011;52930;51.464;11.764;2023-05-10T12:47:27;4.57;;;1.60;;
66129;SDS011;52930;51.464;11.764;2023-05-10T12:49:53;3.60;;;1.40;;
66129;SDS011;52930;51.464;11.764;2023-05-10T12:52:18;3.90;;;1.53;;
66129;SDS011;52930;51.464;11.764;2023-05-10T12:54:43;3.60;;;1.30;;
66129;SDS011;52930;51.464;11.764;2023-05-10T12:57:09;3.50;;;1.10;;
66129;SDS011;52930;51.464;11.764;2023-05-10T12:59:34;3.10;;;1.00;;
66129;SDS011;52930;51.464;11.764;2023-05-10T13:01:59;4.37;;;0.90;;
66129;SDS011;52930;51.464;11.764;2023-05-10T13:04:24;3.40;;;0.90;;
66129;SDS011;52930;51.464;11.764;2023-05-10T13:06:50;2.80;;;0.80;;
66129;SDS011;52930;51.464;11.764;2023-05-10T13:09:15;2.60;;;0.70;;
66129;SDS011;52930;51.464;11.764;2023-05-10T13:11:41;3.07;;;0.83;;
66129;SDS011;52930;51.464;11.764;2023-05-10T13:14:06;2.30;;;0.50;;
66129;SDS011;52930;51.464;11.764;2023-05-10T13:16:32;2.57;;;0.67;;
66129;SDS011;52930;51.464;11.764;2023-05-10T13:18:57;3.28;;;0.75;;
66129;SDS011;52930;51.464;11.764;2023-05-10T13:21:23;2.50;;;0.80;;
66129;SDS011;52930;51.464;11.764;2023-05-10T13:23:49;2.22;;;0.60;;
66129;SDS011;52930;51.464;11.764;2023-05-10T13:26:15;1.83;;;0.40;;
66129;SDS011;52930;51.464;11.764;2023-05-10T13:28:40;2.25;;;0.50;;
66129;SDS011;52930;51.464;11.764;2023-05-10T13:31:06;2.20;;;0.40;;
66129;SDS011;52930;51.464;11.764;2023-05-10T13:33:31;2.13;;;0.40;;
66129;SDS011;52930;51.464;11.764;2023-05-10T13:35:56;2.00;;;0.40;;
66129;SDS011;52930;51.464;11.764;2023-05-10T13:38:22;2.90;;;0.40;;
66129;SDS011;52930;51.464;11.764;2023-05-10T13:40:47;2.10;;;0.40;;
66129;SDS011;52930;51.464;11.764;2023-05-10T13:43:12;2.33;;;0.50;;
66129;SDS011;52930;51.464;11.764;2023-05-10T13:45:38;2.00;;;0.30;;
66129;SDS011;52930;51.464;11.764;2023-05-10T13:48:03;3.07;;;0.40;;
66129;SDS011;52930;51.464;11.764;2023-05-10T13:50:29;1.97;;;0.40;;
66129;SDS011;52930;51.464;11.764;2023-05-10T13:52:54;1.92;;;0.30;;
66129;SDS011;52930;51.464;11.764;2023-05-10T13:55:20;2.20;;;0.50;;
66129;SDS011;52930;51.464;11.764;2023-05-10T13:57:45;1.83;;;0.40;;
66129;SDS011;52930;51.464;11.764;2023-05-10T14:00:11;2.30;;;0.30;;
66129;SDS011;52930;51.464;11.764;2023-05-10T14:02:37;2.00;;;0.40;;
66129;SDS011;52930;51.464;11.764;2023-05-10T14:05:02;2.10;;;0.50;;
66129;SDS011;52930;51.464;11.764;2023-05-10T14:07:28;1.85;;;0.47;;
66129;SDS011;52930;51.464;11.764;2023-05-10T14:09:53;2.40;;;0.60;;
66129;SDS011;52930;51.464;11.764;2023-05-10T14:12:18;2.20;;;0.60;;
66129;SDS011;52930;51.464;11.764;2023-05-10T14:14:43;2.20;;;0.50;;
66129;SDS011;52930;51.464;11.764;2023-05-10T14:17:10;2.40;;;0.60;;
66129;SDS011;52930;51.464;11.764;2023-05-10T14:19:35;2.17;;;0.60;;
66129;SDS011;52930;51.464;11.764;2023-05-10T14:22:00;2.10;;;0.50;;
66129;SDS011;52930;51.464;11.764;2023-05-10T14:24:26;3.37;;;0.70;;
66129;SDS011;52930;51.464;11.764;2023-05-10T14:26:51;4.00;;;0.60;;
66129;SDS011;52930;51.464;11.764;2023-05-10T14:29:18;2.95;;;0.60;;
66129;SDS011;52930;51.464;11.764;2023-05-10T14:31:44;2.85;;;0.70;;
66129;SDS011;52930;51.464;11.764;2023-05-10T14:34:10;3.07;;;0.80;;
66129;SDS011;52930;51.464;11.764;2023-05-10T14:36:35;2.30;;;0.60;;
66129;SDS011;52930;51.464;11.764;2023-05-10T14:39:00;4.13;;;0.70;;
66129;SDS011;52930;51.464;11.764;2023-05-10T14:41:25;2.43;;;0.50;;
66129;SDS011;52930;51.464;11.764;2023-05-10T14:43:51;2.50;;;0.53;;
66129;SDS011;52930;51.464;11.764;2023-05-10T14:46:16;3.03;;;0.80;;
66129;SDS011;52930;51.464;11.764;2023-05-10T14:48:41;2.30;;;0.50;;
66129;SDS011;52930;51.464;11.764;2023-05-10T14:51:07;3.78;;;0.80;;
66129;SDS011;52930;51.464;11.764;2023-05-10T14:53:32;2.40;;;0.67;;
66129;SDS011;52930;51.464;11.764;2023-05-10T14:55:58;2.67;;;0.63;;
66129;SDS011;52930;51.464;11.764;2023-05-10T14:58:25;3.50;;;0.75;;
66129;SDS011;52930;51.464;11.764;2023-05-10T15:00:50;2.90;;;1.00;;
66129;SDS011;52930;51.464;11.764;2023-05-10T15:03:15;2.50;;;0.60;;
66129;SDS011;52930;51.464;11.764;2023-05-10T15:05:41;3.27;;;0.60;;